sensor_id;sensor_type;location;lat;lon;timestamp;temperature;humidity
17954;DHT22;9102;53.548;9.926;2022-08-03T00:01:29;20.70;99.90
17954;DHT22;9102;53.548;9.926;2022-08-03T00:03:56;20.60;99.90
17954;DHT22;9102;53.548;9.926;2022-08-03T00:06:22;20.60;99.90
17954;DHT22;9102;53.548;9.926;2022-08-03T00:08:51;20.60;99.90
17954;DHT22;9102;53.548;9.926;2022-08-03T00:11:17;20.60;99.90
17954;DHT22;9102;53.548;9.926;2022-08-03T00:13:46;20.50;99.90
17954;DHT22;9102;53.548;9.926;2022-08-03T00:16:12;20.50;99.90
17954;DHT22;9102;53.548;9.926;2022-08-03T00:18:39;20.50;99.90
17954;DHT22;9102;53.548;9.926;2022-08-03T00:21:06;20.50;99.90
17954;DHT22;9102;53.548;9.926;2022-08-03T00:23:33;20.50;99.90
17954;DHT22;9102;53.548;9.926;2022-08-03T00:26:02;20.50;99.90
17954;DHT22;9102;53.548;9.926;2022-08-03T00:28:28;20.40;99.90
17954;DHT22;9102;53.548;9.926;2022-08-03T00:30:55;20.40;99.90
17954;DHT22;9102;53.548;9.926;2022-08-03T00:33:22;20.30;99.90
17954;DHT22;9102;53.548;9.926;2022-08-03T00:35:50;20.30;99.90
17954;DHT22;9102;53.548;9.926;2022-08-03T00:38:17;20.20;99.90
17954;DHT22;9102;53.548;9.926;2022-08-03T00:40:44;20.30;99.90
17954;DHT22;9102;53.548;9.926;2022-08-03T00:43:12;20.20;99.90
17954;DHT22;9102;53.548;9.926;2022-08-03T00:45:42;20.20;99.90
17954;DHT22;9102;53.548;9.926;2022-08-03T00:48:10;20.20;99.90
17954;DHT22;9102;53.548;9.926;2022-08-03T00:50:39;20.10;99.90
17954;DHT22;9102;53.548;9.926;2022-08-03T00:53:06;20.10;99.90
17954;DHT22;9102;53.548;9.926;2022-08-03T00:55:35;20.10;99.90
17954;DHT22;9102;53.548;9.926;2022-08-03T00:58:02;20.10;99.90
17954;DHT22;9102;53.548;9.926;2022-08-03T01:00:33;20.10;99.90
17954;DHT22;9102;53.548;9.926;2022-08-03T01:03:03;20.10;99.90
17954;DHT22;9102;53.548;9.926;2022-08-03T01:05:32;20.00;99.90
17954;DHT22;9102;53.548;9.926;2022-08-03T01:08:02;20.10;99.90
17954;DHT22;9102;53.548;9.926;2022-08-03T01:10:36;20.10;99.90
17954;DHT22;9102;53.548;9.926;2022-08-03T01:13:14;20.10;99.90
17954;DHT22;9102;53.548;9.926;2022-08-03T01:15:48;20.10;99.90
17954;DHT22;9102;53.548;9.926;2022-08-03T01:18:23;20.00;99.90
17954;DHT22;9102;53.548;9.926;2022-08-03T01:20:54;20.00;99.90
17954;DHT22;9102;53.548;9.926;2022-08-03T01:23:34;20.00;99.90
17954;DHT22;9102;53.548;9.926;2022-08-03T01:26:11;20.00;99.90
17954;DHT22;9102;53.548;9.926;2022-08-03T01:28:55;19.90;99.90
17954;DHT22;9102;53.548;9.926;2022-08-03T01:31:27;19.90;99.90
17954;DHT22;9102;53.548;9.926;2022-08-03T01:34:00;19.90;99.90
17954;DHT22;9102;53.548;9.926;2022-08-03T01:36:32;19.80;99.90
17954;DHT22;9102;53.548;9.926;2022-08-03T01:39:02;19.70;99.90
17954;DHT22;9102;53.548;9.926;2022-08-03T01:41:37;19.80;99.90
17954;DHT22;9102;53.548;9.926;2022-08-03T01:44:07;19.80;99.90
17954;DHT22;9102;53.548;9.926;2022-08-03T01:46:36;19.80;99.90
17954;DHT22;9102;53.548;9.926;2022-08-03T01:49:06;19.80;99.90
17954;DHT22;9102;53.548;9.926;2022-08-03T01:51:34;19.80;99.90
17954;DHT22;9102;53.548;9.926;2022-08-03T01:54:03;19.80;99.90
17954;DHT22;9102;53.548;9.926;2022-08-03T01:56:30;19.70;99.90
17954;DHT22;9102;53.548;9.926;2022-08-03T01:59:00;19.70;99.90
17954;DHT22;9102;53.548;9.926;2022-08-03T02:01:28;19.70;99.90
17954;DHT22;9102;53.548;9.926;2022-08-03T02:03:58;19.70;99.90
17954;DHT22;9102;53.548;9.926;2022-08-03T02:06:26;19.70;99.90
17954;DHT22;9102;53.548;9.926;2022-08-03T02:08:55;19.70;99.90
17954;DHT22;9102;53.548;9.926;2022-08-03T02:11:23;19.70;99.90
17954;DHT22;9102;53.548;9.926;2022-08-03T02:13:50;19.60;99.90
17954;DHT22;9102;53.548;9.926;2022-08-03T02:16:18;19.60;99.90
17954;DHT22;9102;53.548;9.926;2022-08-03T02:18:46;19.60;99.90
17954;DHT22;9102;53.548;9.926;2022-08-03T02:21:15;19.60;99.90
17954;DHT22;9102;53.548;9.926;2022-08-03T02:23:41;19.50;99.90
17954;DHT22;9102;53.548;9.926;2022-08-03T02:26:13;19.60;99.90
17954;DHT22;9102;53.548;9.926;2022-08-03T02:28:42;19.50;99.90
17954;DHT22;9102;53.548;9.926;2022-08-03T02:31:12;19.50;99.90
17954;DHT22;9102;53.548;9.926;2022-08-03T02:33:43;19.50;99.90
17954;DHT22;9102;53.548;9.926;2022-08-03T02:36:15;19.50;99.90
17954;DHT22;9102;53.548;9.926;2022-08-03T02:38:43;19.40;99.90
17954;DHT22;9102;53.548;9.926;2022-08-03T02:41:14;19.40;99.90
17954;DHT22;9102;53.548;9.926;2022-08-03T02:43:43;19.40;99.90
17954;DHT22;9102;53.548;9.926;2022-08-03T02:46:12;19.40;99.90
17954;DHT22;9102;53.548;9.926;2022-08-03T02:48:40;19.40;99.90
17954;DHT22;9102;53.548;9.926;2022-08-03T02:51:09;19.30;99.90
17954;DHT22;9102;53.548;9.926;2022-08-03T02:53:38;19.30;99.90
17954;DHT22;9102;53.548;9.926;2022-08-03T02:56:06;19.30;99.90
17954;DHT22;9102;53.548;9.926;2022-08-03T02:58:34;19.30;99.90
17954;DHT22;9102;53.548;9.926;2022-08-03T03:01:02;19.30;99.90
17954;DHT22;9102;53.548;9.926;2022-08-03T03:03:30;19.40;99.90
17954;DHT22;9102;53.548;9.926;2022-08-03T03:05:57;19.40;99.90
17954;DHT22;9102;53.548;9.926;2022-08-03T03:08:25;19.40;99.90
17954;DHT22;9102;53.548;9.926;2022-08-03T03:10:53;19.40;99.90
17954;DHT22;9102;53.548;9.926;2022-08-03T03:13:21;19.40;99.90
17954;DHT22;9102;53.548;9.926;2022-08-03T03:15:48;19.30;99.90
17954;DHT22;9102;53.548;9.926;2022-08-03T03:18:16;19.30;99.90
17954;DHT22;9102;53.548;9.926;2022-08-03T03:20:44;19.30;99.90
17954;DHT22;9102;53.548;9.926;2022-08-03T03:23:12;19.30;99.90
17954;DHT22;9102;53.548;9.926;2022-08-03T03:25:40;19.30;99.90
17954;DHT22;9102;53.548;9.926;2022-08-03T03:28:09;19.30;99.90
17954;DHT22;9102;53.548;9.926;2022-08-03T03:30:37;19.30;99.90
17954;DHT22;9102;53.548;9.926;2022-08-03T03:33:04;19.20;99.90
17954;DHT22;9102;53.548;9.926;2022-08-03T03:35:32;19.20;99.90
17954;DHT22;9102;53.548;9.926;2022-08-03T03:37:59;19.20;99.90
17954;DHT22;9102;53.548;9.926;2022-08-03T03:40:26;19.20;99.90
17954;DHT22;9102;53.548;9.926;2022-08-03T03:42:53;19.20;99.90
17954;DHT22;9102;53.548;9.926;2022-08-03T03:45:22;19.10;99.90
17954;DHT22;9102;53.548;9.926;2022-08-03T03:47:49;19.10;99.90
17954;DHT22;9102;53.548;9.926;2022-08-03T03:50:17;19.10;99.90
17954;DHT22;9102;53.548;9.926;2022-08-03T03:52:45;19.10;99.90
17954;DHT22;9102;53.548;9.926;2022-08-03T03:55:15;19.10;99.90
17954;DHT22;9102;53.548;9.926;2022-08-03T03:57:42;19.10;99.90
17954;DHT22;9102;53.548;9.926;2022-08-03T04:00:10;19.10;99.90
17954;DHT22;9102;53.548;9.926;2022-08-03T04:02:39;19.10;99.90
17954;DHT22;9102;53.548;9.926;2022-08-03T04:05:07;19.10;99.90
17954;DHT22;9102;53.548;9.926;2022-08-03T04:07:56;19.00;99.90
17954;DHT22;9102;53.548;9.926;2022-08-03T04:10:46;19.10;99.90
17954;DHT22;9102;53.548;9.926;2022-08-03T04:13:30;19.10;99.90
17954;DHT22;9102;53.548;9.926;2022-08-03T04:15:59;19.10;99.90
17954;DHT22;9102;53.548;9.926;2022-08-03T04:18:29;19.10;99.90
17954;DHT22;9102;53.548;9.926;2022-08-03T04:21:00;19.10;99.90
17954;DHT22;9102;53.548;9.926;2022-08-03T04:23:30;19.10;99.90
17954;DHT22;9102;53.548;9.926;2022-08-03T04:26:00;19.10;99.90
17954;DHT22;9102;53.548;9.926;2022-08-03T04:28:28;19.10;99.90
17954;DHT22;9102;53.548;9.926;2022-08-03T04:30:57;19.10;99.90
17954;DHT22;9102;53.548;9.926;2022-08-03T04:33:26;19.10;99.90
17954;DHT22;9102;53.548;9.926;2022-08-03T04:35:57;19.20;99.90
17954;DHT22;9102;53.548;9.926;2022-08-03T04:38:24;19.20;99.90
17954;DHT22;9102;53.548;9.926;2022-08-03T04:40:53;19.20;99.90
17954;DHT22;9102;53.548;9.926;2022-08-03T04:43:21;19.30;99.90
17954;DHT22;9102;53.548;9.926;2022-08-03T04:45:49;19.20;99.90
17954;DHT22;9102;53.548;9.926;2022-08-03T04:48:16;19.30;99.90
17954;DHT22;9102;53.548;9.926;2022-08-03T04:50:45;19.30;99.90
17954;DHT22;9102;53.548;9.926;2022-08-03T04:53:13;19.30;99.90
17954;DHT22;9102;53.548;9.926;2022-08-03T04:55:42;19.30;99.90
17954;DHT22;9102;53.548;9.926;2022-08-03T04:58:09;19.40;99.90
17954;DHT22;9102;53.548;9.926;2022-08-03T05:00:37;19.50;99.90
17954;DHT22;9102;53.548;9.926;2022-08-03T05:03:03;19.50;99.90
17954;DHT22;9102;53.548;9.926;2022-08-03T05:05:30;19.50;99.90
17954;DHT22;9102;53.548;9.926;2022-08-03T05:07:57;19.60;99.90
17954;DHT22;9102;53.548;9.926;2022-08-03T05:10:25;19.60;99.90
17954;DHT22;9102;53.548;9.926;2022-08-03T05:12:52;19.70;99.90
17954;DHT22;9102;53.548;9.926;2022-08-03T05:15:19;19.80;99.90
17954;DHT22;9102;53.548;9.926;2022-08-03T05:17:46;19.80;99.90
17954;DHT22;9102;53.548;9.926;2022-08-03T05:20:13;19.90;99.90
17954;DHT22;9102;53.548;9.926;2022-08-03T05:22:40;20.00;99.90
17954;DHT22;9102;53.548;9.926;2022-08-03T05:25:07;20.00;99.90
17954;DHT22;9102;53.548;9.926;2022-08-03T05:27:35;20.10;99.90
17954;DHT22;9102;53.548;9.926;2022-08-03T05:30:03;20.20;99.90
17954;DHT22;9102;53.548;9.926;2022-08-03T05:32:30;20.30;99.90
17954;DHT22;9102;53.548;9.926;2022-08-03T05:34:57;20.40;99.90
17954;DHT22;9102;53.548;9.926;2022-08-03T05:37:24;20.40;99.90
17954;DHT22;9102;53.548;9.926;2022-08-03T05:39:51;20.50;99.90
17954;DHT22;9102;53.548;9.926;2022-08-03T05:42:18;20.50;99.90
17954;DHT22;9102;53.548;9.926;2022-08-03T05:44:46;20.60;99.90
17954;DHT22;9102;53.548;9.926;2022-08-03T05:47:12;20.70;99.90
17954;DHT22;9102;53.548;9.926;2022-08-03T05:49:39;20.70;99.90
17954;DHT22;9102;53.548;9.926;2022-08-03T05:52:06;20.80;99.90
17954;DHT22;9102;53.548;9.926;2022-08-03T05:54:33;20.80;99.90
17954;DHT22;9102;53.548;9.926;2022-08-03T05:57:00;20.80;99.90
17954;DHT22;9102;53.548;9.926;2022-08-03T05:59:27;20.80;99.90
17954;DHT22;9102;53.548;9.926;2022-08-03T06:01:55;20.80;99.90
17954;DHT22;9102;53.548;9.926;2022-08-03T06:04:22;20.90;99.90
17954;DHT22;9102;53.548;9.926;2022-08-03T06:06:48;21.00;99.90
17954;DHT22;9102;53.548;9.926;2022-08-03T06:09:15;21.10;99.90
17954;DHT22;9102;53.548;9.926;2022-08-03T06:11:42;21.10;99.90
17954;DHT22;9102;53.548;9.926;2022-08-03T06:14:09;21.20;99.90
17954;DHT22;9102;53.548;9.926;2022-08-03T06:16:36;21.30;99.90
17954;DHT22;9102;53.548;9.926;2022-08-03T06:19:04;21.30;99.90
17954;DHT22;9102;53.548;9.926;2022-08-03T06:21:31;21.30;99.90
17954;DHT22;9102;53.548;9.926;2022-08-03T06:23:58;21.40;99.90
17954;DHT22;9102;53.548;9.926;2022-08-03T06:26:26;21.50;99.90
17954;DHT22;9102;53.548;9.926;2022-08-03T06:28:53;21.60;99.90
17954;DHT22;9102;53.548;9.926;2022-08-03T06:31:21;21.60;99.90
17954;DHT22;9102;53.548;9.926;2022-08-03T06:33:50;21.70;99.90
17954;DHT22;9102;53.548;9.926;2022-08-03T06:36:18;21.80;99.90
17954;DHT22;9102;53.548;9.926;2022-08-03T06:38:45;21.90;99.90
17954;DHT22;9102;53.548;9.926;2022-08-03T06:41:12;22.00;99.90
17954;DHT22;9102;53.548;9.926;2022-08-03T06:43:39;22.00;99.90
17954;DHT22;9102;53.548;9.926;2022-08-03T06:46:07;22.20;99.90
17954;DHT22;9102;53.548;9.926;2022-08-03T06:48:35;22.20;99.90
17954;DHT22;9102;53.548;9.926;2022-08-03T06:51:02;22.30;99.90
17954;DHT22;9102;53.548;9.926;2022-08-03T06:53:30;22.30;99.90
17954;DHT22;9102;53.548;9.926;2022-08-03T06:55:57;22.40;99.90
17954;DHT22;9102;53.548;9.926;2022-08-03T06:58:24;22.50;99.90
17954;DHT22;9102;53.548;9.926;2022-08-03T07:00:51;22.60;99.90
17954;DHT22;9102;53.548;9.926;2022-08-03T07:03:18;22.70;99.90
17954;DHT22;9102;53.548;9.926;2022-08-03T07:05:44;22.80;99.90
17954;DHT22;9102;53.548;9.926;2022-08-03T07:08:13;22.90;99.90
17954;DHT22;9102;53.548;9.926;2022-08-03T07:10:41;23.00;99.90
17954;DHT22;9102;53.548;9.926;2022-08-03T07:13:09;23.10;99.90
17954;DHT22;9102;53.548;9.926;2022-08-03T07:15:36;23.20;99.90
17954;DHT22;9102;53.548;9.926;2022-08-03T07:18:03;23.30;99.90
17954;DHT22;9102;53.548;9.926;2022-08-03T07:20:31;23.40;99.90
17954;DHT22;9102;53.548;9.926;2022-08-03T07:22:58;23.40;99.90
17954;DHT22;9102;53.548;9.926;2022-08-03T07:25:25;23.50;99.90
17954;DHT22;9102;53.548;9.926;2022-08-03T07:27:53;23.60;99.90
17954;DHT22;9102;53.548;9.926;2022-08-03T07:30:19;23.80;99.90
17954;DHT22;9102;53.548;9.926;2022-08-03T07:32:46;23.90;99.90
17954;DHT22;9102;53.548;9.926;2022-08-03T07:35:13;24.10;99.90
17954;DHT22;9102;53.548;9.926;2022-08-03T07:37:40;24.20;99.90
17954;DHT22;9102;53.548;9.926;2022-08-03T07:40:07;24.30;99.90
17954;DHT22;9102;53.548;9.926;2022-08-03T07:42:34;24.30;99.90
17954;DHT22;9102;53.548;9.926;2022-08-03T07:45:02;24.40;99.90
17954;DHT22;9102;53.548;9.926;2022-08-03T07:47:30;24.50;99.90
17954;DHT22;9102;53.548;9.926;2022-08-03T07:49:57;24.60;99.90
17954;DHT22;9102;53.548;9.926;2022-08-03T07:52:24;24.60;99.90
17954;DHT22;9102;53.548;9.926;2022-08-03T07:55:09;24.70;99.90
17954;DHT22;9102;53.548;9.926;2022-08-03T07:57:36;24.80;99.90
17954;DHT22;9102;53.548;9.926;2022-08-03T08:00:07;24.80;99.90
17954;DHT22;9102;53.548;9.926;2022-08-03T08:02:37;24.80;99.90
17954;DHT22;9102;53.548;9.926;2022-08-03T08:05:05;24.80;99.90
17954;DHT22;9102;53.548;9.926;2022-08-03T08:07:32;24.90;99.90
17954;DHT22;9102;53.548;9.926;2022-08-03T08:09:59;25.00;99.90
17954;DHT22;9102;53.548;9.926;2022-08-03T08:12:25;25.10;99.90
17954;DHT22;9102;53.548;9.926;2022-08-03T08:14:52;25.20;99.90
17954;DHT22;9102;53.548;9.926;2022-08-03T08:17:20;25.30;99.90
17954;DHT22;9102;53.548;9.926;2022-08-03T08:19:47;25.30;99.90
17954;DHT22;9102;53.548;9.926;2022-08-03T08:22:14;25.30;99.90
17954;DHT22;9102;53.548;9.926;2022-08-03T08:24:41;25.30;99.90
17954;DHT22;9102;53.548;9.926;2022-08-03T08:27:09;25.30;99.90
17954;DHT22;9102;53.548;9.926;2022-08-03T08:29:36;25.30;99.90
17954;DHT22;9102;53.548;9.926;2022-08-03T08:32:03;25.30;99.90
17954;DHT22;9102;53.548;9.926;2022-08-03T08:34:32;25.40;99.90
17954;DHT22;9102;53.548;9.926;2022-08-03T08:36:58;25.40;99.90
17954;DHT22;9102;53.548;9.926;2022-08-03T08:39:26;25.50;99.90
17954;DHT22;9102;53.548;9.926;2022-08-03T08:41:53;25.60;99.90
17954;DHT22;9102;53.548;9.926;2022-08-03T08:44:20;25.70;99.90
17954;DHT22;9102;53.548;9.926;2022-08-03T08:46:47;25.80;99.90
17954;DHT22;9102;53.548;9.926;2022-08-03T08:49:16;25.90;99.90
17954;DHT22;9102;53.548;9.926;2022-08-03T08:51:46;26.10;99.90
17954;DHT22;9102;53.548;9.926;2022-08-03T08:54:15;26.10;99.90
17954;DHT22;9102;53.548;9.926;2022-08-03T08:56:43;26.00;99.90
17954;DHT22;9102;53.548;9.926;2022-08-03T08:59:10;26.10;99.90
17954;DHT22;9102;53.548;9.926;2022-08-03T09:01:38;26.10;99.90
17954;DHT22;9102;53.548;9.926;2022-08-03T09:04:05;26.10;99.90
17954;DHT22;9102;53.548;9.926;2022-08-03T09:06:34;26.10;99.90
17954;DHT22;9102;53.548;9.926;2022-08-03T09:09:02;26.20;99.90
17954;DHT22;9102;53.548;9.926;2022-08-03T09:11:31;26.20;99.90
17954;DHT22;9102;53.548;9.926;2022-08-03T09:13:58;26.20;99.90
17954;DHT22;9102;53.548;9.926;2022-08-03T09:16:25;26.20;99.90
17954;DHT22;9102;53.548;9.926;2022-08-03T09:18:53;26.20;99.90
17954;DHT22;9102;53.548;9.926;2022-08-03T09:21:21;26.20;99.90
17954;DHT22;9102;53.548;9.926;2022-08-03T09:23:50;26.20;99.90
17954;DHT22;9102;53.548;9.926;2022-08-03T09:26:24;26.30;99.90
17954;DHT22;9102;53.548;9.926;2022-08-03T09:28:55;26.40;99.90
17954;DHT22;9102;53.548;9.926;2022-08-03T09:31:30;26.50;99.90
17954;DHT22;9102;53.548;9.926;2022-08-03T09:33:59;26.60;99.90
17954;DHT22;9102;53.548;9.926;2022-08-03T09:36:37;26.80;99.90
17954;DHT22;9102;53.548;9.926;2022-08-03T09:39:06;26.80;99.90
17954;DHT22;9102;53.548;9.926;2022-08-03T09:41:37;26.90;99.90
17954;DHT22;9102;53.548;9.926;2022-08-03T09:44:04;27.00;99.90
17954;DHT22;9102;53.548;9.926;2022-08-03T09:46:44;27.00;99.90
17954;DHT22;9102;53.548;9.926;2022-08-03T09:49:12;27.10;99.90
17954;DHT22;9102;53.548;9.926;2022-08-03T09:51:39;27.20;99.90
17954;DHT22;9102;53.548;9.926;2022-08-03T09:54:07;27.30;99.90
17954;DHT22;9102;53.548;9.926;2022-08-03T09:56:39;27.30;99.90
17954;DHT22;9102;53.548;9.926;2022-08-03T09:59:06;27.30;99.90
17954;DHT22;9102;53.548;9.926;2022-08-03T10:01:34;27.30;99.90
17954;DHT22;9102;53.548;9.926;2022-08-03T10:04:02;27.40;99.90
17954;DHT22;9102;53.548;9.926;2022-08-03T10:06:28;27.50;99.90
17954;DHT22;9102;53.548;9.926;2022-08-03T10:09:05;27.50;99.90
17954;DHT22;9102;53.548;9.926;2022-08-03T10:11:33;27.60;99.90
17954;DHT22;9102;53.548;9.926;2022-08-03T10:14:03;27.60;99.90
17954;DHT22;9102;53.548;9.926;2022-08-03T10:16:32;27.60;99.90
17954;DHT22;9102;53.548;9.926;2022-08-03T10:19:00;27.70;99.90
17954;DHT22;9102;53.548;9.926;2022-08-03T10:21:31;27.70;99.90
17954;DHT22;9102;53.548;9.926;2022-08-03T10:24:02;27.70;99.90
17954;DHT22;9102;53.548;9.926;2022-08-03T10:26:30;27.80;99.90
17954;DHT22;9102;53.548;9.926;2022-08-03T10:28:59;27.80;99.90
17954;DHT22;9102;53.548;9.926;2022-08-03T10:31:34;27.80;99.90
17954;DHT22;9102;53.548;9.926;2022-08-03T10:34:10;27.90;99.90
17954;DHT22;9102;53.548;9.926;2022-08-03T10:36:41;28.00;99.90
17954;DHT22;9102;53.548;9.926;2022-08-03T10:39:09;28.00;99.90
17954;DHT22;9102;53.548;9.926;2022-08-03T10:41:39;28.00;99.90
17954;DHT22;9102;53.548;9.926;2022-08-03T10:44:09;28.10;99.90
17954;DHT22;9102;53.548;9.926;2022-08-03T10:46:40;28.10;99.90
17954;DHT22;9102;53.548;9.926;2022-08-03T10:49:08;28.40;99.90
17954;DHT22;9102;53.548;9.926;2022-08-03T10:51:38;28.50;99.90
17954;DHT22;9102;53.548;9.926;2022-08-03T10:54:04;28.70;99.90
17954;DHT22;9102;53.548;9.926;2022-08-03T10:56:38;28.80;99.90
17954;DHT22;9102;53.548;9.926;2022-08-03T10:59:56;28.90;99.90
17954;DHT22;9102;53.548;9.926;2022-08-03T11:03:02;28.90;99.90
17954;DHT22;9102;53.548;9.926;2022-08-03T11:05:30;28.80;99.90
17954;DHT22;9102;53.548;9.926;2022-08-03T11:08:20;28.60;99.90
17954;DHT22;9102;53.548;9.926;2022-08-03T11:10:47;28.60;99.90
17954;DHT22;9102;53.548;9.926;2022-08-03T11:13:16;28.50;99.90
17954;DHT22;9102;53.548;9.926;2022-08-03T11:15:45;28.50;99.90
17954;DHT22;9102;53.548;9.926;2022-08-03T11:18:15;28.50;99.90
17954;DHT22;9102;53.548;9.926;2022-08-03T11:20:47;28.50;99.90
17954;DHT22;9102;53.548;9.926;2022-08-03T11:23:16;28.60;99.90
17954;DHT22;9102;53.548;9.926;2022-08-03T11:26:11;28.70;99.90
17954;DHT22;9102;53.548;9.926;2022-08-03T11:28:38;28.90;99.90
17954;DHT22;9102;53.548;9.926;2022-08-03T11:31:43;29.00;99.90
17954;DHT22;9102;53.548;9.926;2022-08-03T11:34:15;29.10;99.90
17954;DHT22;9102;53.548;9.926;2022-08-03T11:39:44;29.40;99.90
17954;DHT22;9102;53.548;9.926;2022-08-03T11:42:39;29.50;99.90
17954;DHT22;9102;53.548;9.926;2022-08-03T11:45:08;29.50;99.90
17954;DHT22;9102;53.548;9.926;2022-08-03T11:47:39;29.50;99.90
17954;DHT22;9102;53.548;9.926;2022-08-03T11:50:08;29.50;99.90
17954;DHT22;9102;53.548;9.926;2022-08-03T11:52:38;29.40;99.90
17954;DHT22;9102;53.548;9.926;2022-08-03T11:55:10;29.40;99.90
17954;DHT22;9102;53.548;9.926;2022-08-03T11:57:37;29.50;99.90
17954;DHT22;9102;53.548;9.926;2022-08-03T12:03:05;29.50;99.90
17954;DHT22;9102;53.548;9.926;2022-08-03T12:05:45;29.50;99.90
17954;DHT22;9102;53.548;9.926;2022-08-03T12:08:14;29.50;99.90
17954;DHT22;9102;53.548;9.926;2022-08-03T12:10:46;29.50;99.90
17954;DHT22;9102;53.548;9.926;2022-08-03T12:13:14;29.50;99.90
17954;DHT22;9102;53.548;9.926;2022-08-03T12:15:41;29.50;99.90
17954;DHT22;9102;53.548;9.926;2022-08-03T12:18:16;29.50;99.90
17954;DHT22;9102;53.548;9.926;2022-08-03T12:20:45;29.40;99.90
17954;DHT22;9102;53.548;9.926;2022-08-03T12:23:12;29.40;99.90
17954;DHT22;9102;53.548;9.926;2022-08-03T12:25:41;29.40;99.90
17954;DHT22;9102;53.548;9.926;2022-08-03T12:28:13;29.50;99.90
17954;DHT22;9102;53.548;9.926;2022-08-03T12:30:44;29.50;99.90
17954;DHT22;9102;53.548;9.926;2022-08-03T12:33:13;29.50;99.90
17954;DHT22;9102;53.548;9.926;2022-08-03T12:35:40;29.60;99.90
17954;DHT22;9102;53.548;9.926;2022-08-03T12:38:09;29.70;99.90
17954;DHT22;9102;53.548;9.926;2022-08-03T12:40:36;29.70;99.90
17954;DHT22;9102;53.548;9.926;2022-08-03T12:43:10;29.70;99.90
17954;DHT22;9102;53.548;9.926;2022-08-03T12:45:37;29.70;99.90
17954;DHT22;9102;53.548;9.926;2022-08-03T12:48:08;29.70;99.90
17954;DHT22;9102;53.548;9.926;2022-08-03T12:50:36;29.70;99.90
17954;DHT22;9102;53.548;9.926;2022-08-03T12:53:04;29.70;99.90
17954;DHT22;9102;53.548;9.926;2022-08-03T12:55:33;29.70;99.90
17954;DHT22;9102;53.548;9.926;2022-08-03T12:58:01;29.80;99.90
17954;DHT22;9102;53.548;9.926;2022-08-03T13:00:28;29.90;99.90
17954;DHT22;9102;53.548;9.926;2022-08-03T13:02:59;30.00;99.90
17954;DHT22;9102;53.548;9.926;2022-08-03T13:05:28;30.10;99.90
17954;DHT22;9102;53.548;9.926;2022-08-03T13:07:56;30.20;99.90
17954;DHT22;9102;53.548;9.926;2022-08-03T13:10:30;30.20;99.90
17954;DHT22;9102;53.548;9.926;2022-08-03T13:12:59;30.10;99.90
17954;DHT22;9102;53.548;9.926;2022-08-03T13:15:28;30.20;99.90
17954;DHT22;9102;53.548;9.926;2022-08-03T13:17:55;30.30;99.90
17954;DHT22;9102;53.548;9.926;2022-08-03T13:20:22;30.20;99.90
17954;DHT22;9102;53.548;9.926;2022-08-03T13:22:49;30.20;99.90
17954;DHT22;9102;53.548;9.926;2022-08-03T13:25:17;30.20;99.90
17954;DHT22;9102;53.548;9.926;2022-08-03T13:27:45;30.20;99.90
17954;DHT22;9102;53.548;9.926;2022-08-03T13:30:13;30.20;99.90
17954;DHT22;9102;53.548;9.926;2022-08-03T13:32:41;30.30;99.90
17954;DHT22;9102;53.548;9.926;2022-08-03T13:35:08;30.40;99.90
17954;DHT22;9102;53.548;9.926;2022-08-03T13:37:36;30.40;99.90
17954;DHT22;9102;53.548;9.926;2022-08-03T13:40:04;30.40;99.90
17954;DHT22;9102;53.548;9.926;2022-08-03T13:42:34;30.40;99.90
17954;DHT22;9102;53.548;9.926;2022-08-03T13:45:01;30.40;99.90
17954;DHT22;9102;53.548;9.926;2022-08-03T13:47:31;30.20;99.90
17954;DHT22;9102;53.548;9.926;2022-08-03T13:49:58;30.30;99.90
17954;DHT22;9102;53.548;9.926;2022-08-03T13:52:24;30.30;99.90
17954;DHT22;9102;53.548;9.926;2022-08-03T13:54:52;30.40;99.90
17954;DHT22;9102;53.548;9.926;2022-08-03T13:57:18;30.40;99.90
17954;DHT22;9102;53.548;9.926;2022-08-03T13:59:45;30.40;99.90
17954;DHT22;9102;53.548;9.926;2022-08-03T14:02:12;30.50;99.90
17954;DHT22;9102;53.548;9.926;2022-08-03T14:04:40;30.60;99.90
17954;DHT22;9102;53.548;9.926;2022-08-03T14:07:07;30.60;99.90
17954;DHT22;9102;53.548;9.926;2022-08-03T14:09:34;30.50;99.90
17954;DHT22;9102;53.548;9.926;2022-08-03T14:12:01;30.50;99.90
17954;DHT22;9102;53.548;9.926;2022-08-03T14:14:28;30.50;99.90
17954;DHT22;9102;53.548;9.926;2022-08-03T14:16:54;30.40;99.90
17954;DHT22;9102;53.548;9.926;2022-08-03T14:19:21;30.40;99.90
17954;DHT22;9102;53.548;9.926;2022-08-03T14:21:49;30.40;99.90
17954;DHT22;9102;53.548;9.926;2022-08-03T14:24:16;30.30;99.90
17954;DHT22;9102;53.548;9.926;2022-08-03T14:26:43;30.30;99.90
17954;DHT22;9102;53.548;9.926;2022-08-03T14:29:10;30.20;99.90
17954;DHT22;9102;53.548;9.926;2022-08-03T14:31:37;30.20;99.90
17954;DHT22;9102;53.548;9.926;2022-08-03T14:34:04;30.20;99.90
17954;DHT22;9102;53.548;9.926;2022-08-03T14:36:30;30.20;99.90
17954;DHT22;9102;53.548;9.926;2022-08-03T14:38:58;30.20;99.90
17954;DHT22;9102;53.548;9.926;2022-08-03T14:41:26;30.30;99.90
17954;DHT22;9102;53.548;9.926;2022-08-03T14:43:53;30.40;99.90
17954;DHT22;9102;53.548;9.926;2022-08-03T14:46:21;30.50;99.90
17954;DHT22;9102;53.548;9.926;2022-08-03T14:48:48;30.40;99.90
17954;DHT22;9102;53.548;9.926;2022-08-03T14:51:14;30.40;99.90
17954;DHT22;9102;53.548;9.926;2022-08-03T14:53:41;30.40;99.90
17954;DHT22;9102;53.548;9.926;2022-08-03T14:56:09;30.50;99.90
17954;DHT22;9102;53.548;9.926;2022-08-03T14:58:37;30.50;99.90
17954;DHT22;9102;53.548;9.926;2022-08-03T15:01:04;30.50;99.90
17954;DHT22;9102;53.548;9.926;2022-08-03T15:03:32;30.50;99.90
17954;DHT22;9102;53.548;9.926;2022-08-03T15:05:58;30.40;99.90
17954;DHT22;9102;53.548;9.926;2022-08-03T15:08:26;30.40;99.90
17954;DHT22;9102;53.548;9.926;2022-08-03T15:10:53;30.50;99.90
17954;DHT22;9102;53.548;9.926;2022-08-03T15:13:21;30.40;99.90
17954;DHT22;9102;53.548;9.926;2022-08-03T15:15:49;30.40;99.90
17954;DHT22;9102;53.548;9.926;2022-08-03T15:18:17;30.30;99.90
17954;DHT22;9102;53.548;9.926;2022-08-03T15:20:44;30.30;99.90
17954;DHT22;9102;53.548;9.926;2022-08-03T15:23:14;30.30;99.90
17954;DHT22;9102;53.548;9.926;2022-08-03T15:25:41;30.20;99.90
17954;DHT22;9102;53.548;9.926;2022-08-03T15:28:08;30.10;99.90
17954;DHT22;9102;53.548;9.926;2022-08-03T15:30:37;30.10;99.90
17954;DHT22;9102;53.548;9.926;2022-08-03T15:33:04;30.10;99.90
17954;DHT22;9102;53.548;9.926;2022-08-03T15:35:31;30.10;99.90
17954;DHT22;9102;53.548;9.926;2022-08-03T15:37:57;30.10;99.90
17954;DHT22;9102;53.548;9.926;2022-08-03T15:40:24;30.00;99.90
17954;DHT22;9102;53.548;9.926;2022-08-03T15:42:51;30.00;99.90
17954;DHT22;9102;53.548;9.926;2022-08-03T15:45:18;30.00;99.90
17954;DHT22;9102;53.548;9.926;2022-08-03T15:47:46;29.90;99.90
17954;DHT22;9102;53.548;9.926;2022-08-03T15:50:13;29.70;99.90
17954;DHT22;9102;53.548;9.926;2022-08-03T15:52:40;29.70;99.90
17954;DHT22;9102;53.548;9.926;2022-08-03T15:55:08;29.70;99.90
17954;DHT22;9102;53.548;9.926;2022-08-03T15:57:35;29.80;99.90
17954;DHT22;9102;53.548;9.926;2022-08-03T16:00:03;29.90;99.90
17954;DHT22;9102;53.548;9.926;2022-08-03T16:02:30;30.10;99.90